sensor_id;sensor_type;location;lat;lon;timestamp;pressure;altitude;pressure_sealevel;temperature;humidity
38812;BME280;24553;51.640;-0.752;2023-01-29T00:01:21;102324.56;;;4.68;100.00
38812;BME280;24553;51.640;-0.752;2023-01-29T00:03:49;102314.97;;;4.67;100.00
38812;BME280;24553;51.640;-0.752;2023-01-29T00:06:14;102313.31;;;4.66;100.00
38812;BME280;24553;51.640;-0.752;2023-01-29T00:08:40;102319.50;;;4.65;100.00
38812;BME280;24553;51.640;-0.752;2023-01-29T00:11:07;102311.50;;;4.66;100.00
38812;BME280;24553;51.640;-0.752;2023-01-29T00:13:33;102310.53;;;4.67;100.00
38812;BME280;24553;51.640;-0.752;2023-01-29T00:15:59;102320.53;;;4.75;100.00
38812;BME280;24553;51.640;-0.752;2023-01-29T00:18:24;102314.00;;;4.80;100.00
38812;BME280;24553;51.640;-0.752;2023-01-29T00:20:51;102312.59;;;4.88;100.00
38812;BME280;24553;51.640;-0.752;2023-01-29T00:23:16;102307.53;;;4.97;100.00
38812;BME280;24553;51.640;-0.752;2023-01-29T00:25:42;102309.78;;;4.91;100.00
38812;BME280;24553;51.640;-0.752;2023-01-29T00:28:08;102299.66;;;4.97;100.00
38812;BME280;24553;51.640;-0.752;2023-01-29T00:30:35;102304.31;;;4.94;100.00
38812;BME280;24553;51.640;-0.752;2023-01-29T00:33:01;102302.75;;;4.91;100.00
38812;BME280;24553;51.640;-0.752;2023-01-29T00:35:26;102302.09;;;4.88;100.00
38812;BME280;24553;51.640;-0.752;2023-01-29T00:37:54;102307.88;;;4.93;100.00
38812;BME280;24553;51.640;-0.752;2023-01-29T00:40:19;102302.50;;;4.94;100.00
38812;BME280;24553;51.640;-0.752;2023-01-29T00:42:45;102306.81;;;4.95;100.00
38812;BME280;24553;51.640;-0.752;2023-01-29T00:45:42;102305.25;;;4.93;100.00
38812;BME280;24553;51.640;-0.752;2023-01-29T00:48:08;102304.63;;;4.89;100.00
38812;BME280;24553;51.640;-0.752;2023-01-29T00:50:33;102296.00;;;4.87;100.00
38812;BME280;24553;51.640;-0.752;2023-01-29T00:52:58;102292.44;;;4.88;100.00
38812;BME280;24553;51.640;-0.752;2023-01-29T00:55:24;102303.06;;;4.87;100.00
38812;BME280;24553;51.640;-0.752;2023-01-29T00:57:49;102297.50;;;4.78;100.00
38812;BME280;24553;51.640;-0.752;2023-01-29T01:00:17;102291.28;;;4.79;100.00
38812;BME280;24553;51.640;-0.752;2023-01-29T01:02:43;102297.19;;;4.83;100.00
38812;BME280;24553;51.640;-0.752;2023-01-29T01:05:27;102295.19;;;4.87;100.00
38812;BME280;24553;51.640;-0.752;2023-01-29T01:07:55;102289.09;;;4.86;100.00
38812;BME280;24553;51.640;-0.752;2023-01-29T01:10:22;102292.63;;;4.85;100.00
38812;BME280;24553;51.640;-0.752;2023-01-29T01:15:21;102294.75;;;4.80;100.00
38812;BME280;24553;51.640;-0.752;2023-01-29T01:17:47;102285.75;;;4.71;100.00
38812;BME280;24553;51.640;-0.752;2023-01-29T01:20:13;102293.53;;;4.73;100.00
38812;BME280;24553;51.640;-0.752;2023-01-29T01:22:39;102279.25;;;4.64;100.00
38812;BME280;24553;51.640;-0.752;2023-01-29T01:25:04;102278.63;;;4.61;100.00
38812;BME280;24553;51.640;-0.752;2023-01-29T01:27:30;102283.66;;;4.64;100.00
38812;BME280;24553;51.640;-0.752;2023-01-29T01:29:56;102291.84;;;4.72;100.00
38812;BME280;24553;51.640;-0.752;2023-01-29T01:32:21;102283.22;;;4.70;100.00
38812;BME280;24553;51.640;-0.752;2023-01-29T01:34:46;102279.66;;;4.71;100.00
38812;BME280;24553;51.640;-0.752;2023-01-29T01:37:12;102284.28;;;4.67;100.00
38812;BME280;24553;51.640;-0.752;2023-01-29T01:39:38;102285.75;;;4.71;100.00
38812;BME280;24553;51.640;-0.752;2023-01-29T01:42:05;102277.97;;;4.70;100.00
38812;BME280;24553;51.640;-0.752;2023-01-29T01:47:29;102277.75;;;4.73;100.00
38812;BME280;24553;51.640;-0.752;2023-01-29T01:50:00;102278.06;;;4.81;100.00
38812;BME280;24553;51.640;-0.752;2023-01-29T01:52:28;102278.88;;;4.81;100.00
38812;BME280;24553;51.640;-0.752;2023-01-29T01:54:56;102285.94;;;4.81;100.00
38812;BME280;24553;51.640;-0.752;2023-01-29T01:57:23;102287.00;;;4.78;100.00
38812;BME280;24553;51.640;-0.752;2023-01-29T01:59:56;102283.72;;;4.75;100.00
38812;BME280;24553;51.640;-0.752;2023-01-29T02:02:24;102289.50;;;4.80;100.00
38812;BME280;24553;51.640;-0.752;2023-01-29T02:05:10;102288.44;;;4.82;100.00
38812;BME280;24553;51.640;-0.752;2023-01-29T02:07:57;102293.59;;;4.84;100.00
38812;BME280;24553;51.640;-0.752;2023-01-29T02:10:44;102288.44;;;4.82;100.00
38812;BME280;24553;51.640;-0.752;2023-01-29T02:13:11;102285.19;;;4.79;100.00
38812;BME280;24553;51.640;-0.752;2023-01-29T02:15:37;102292.47;;;4.75;100.00
38812;BME280;24553;51.640;-0.752;2023-01-29T02:18:06;102292.88;;;4.82;100.00
38812;BME280;24553;51.640;-0.752;2023-01-29T02:20:33;102294.75;;;4.80;100.00
38812;BME280;24553;51.640;-0.752;2023-01-29T02:23:33;102293.81;;;4.81;100.00
38812;BME280;24553;51.640;-0.752;2023-01-29T02:26:36;102283.63;;;4.76;100.00
38812;BME280;24553;51.640;-0.752;2023-01-29T02:29:07;102281.09;;;4.75;100.00
38812;BME280;24553;51.640;-0.752;2023-01-29T02:37:50;102291.59;;;4.88;100.00
38812;BME280;24553;51.640;-0.752;2023-01-29T02:43:18;102282.53;;;4.92;100.00
38812;BME280;24553;51.640;-0.752;2023-01-29T02:46:10;102273.91;;;4.90;100.00
38812;BME280;24553;51.640;-0.752;2023-01-29T02:48:52;102280.97;;;4.89;100.00
38812;BME280;24553;51.640;-0.752;2023-01-29T02:51:25;102280.09;;;5.01;100.00
38812;BME280;24553;51.640;-0.752;2023-01-29T02:54:03;102272.72;;;5.07;100.00
38812;BME280;24553;51.640;-0.752;2023-01-29T02:56:38;102270.19;;;5.05;100.00
38812;BME280;24553;51.640;-0.752;2023-01-29T02:59:11;102270.91;;;5.07;100.00
38812;BME280;24553;51.640;-0.752;2023-01-29T03:01:50;102265.66;;;5.07;100.00
38812;BME280;24553;51.640;-0.752;2023-01-29T03:04:21;102263.63;;;5.11;100.00
38812;BME280;24553;51.640;-0.752;2023-01-29T03:07:05;102256.16;;;5.17;100.00
38812;BME280;24553;51.640;-0.752;2023-01-29T03:09:43;102254.81;;;5.12;100.00
38812;BME280;24553;51.640;-0.752;2023-01-29T03:12:14;102248.94;;;5.08;100.00
38812;BME280;24553;51.640;-0.752;2023-01-29T03:14:59;102239.78;;;5.14;100.00
38812;BME280;24553;51.640;-0.752;2023-01-29T03:17:41;102233.78;;;5.12;100.00
38812;BME280;24553;51.640;-0.752;2023-01-29T03:20:14;102229.25;;;5.14;100.00
38812;BME280;24553;51.640;-0.752;2023-01-29T03:22:44;102234.16;;;5.18;100.00
38812;BME280;24553;51.640;-0.752;2023-01-29T03:25:14;102225.94;;;5.23;100.00
38812;BME280;24553;51.640;-0.752;2023-01-29T03:27:59;102226.16;;;5.20;100.00
38812;BME280;24553;51.640;-0.752;2023-01-29T03:30:56;102215.06;;;5.28;100.00
38812;BME280;24553;51.640;-0.752;2023-01-29T03:33:47;102217.38;;;5.32;100.00
38812;BME280;24553;51.640;-0.752;2023-01-29T03:36:17;102219.28;;;5.30;100.00
38812;BME280;24553;51.640;-0.752;2023-01-29T03:38:44;102215.53;;;5.21;100.00
38812;BME280;24553;51.640;-0.752;2023-01-29T03:41:13;102222.81;;;5.18;100.00
38812;BME280;24553;51.640;-0.752;2023-01-29T03:46:30;102212.91;;;4.97;100.00
38812;BME280;24553;51.640;-0.752;2023-01-29T03:49:29;102212.41;;;4.92;100.00
38812;BME280;24553;51.640;-0.752;2023-01-29T03:52:01;102208.66;;;4.84;100.00
38812;BME280;24553;51.640;-0.752;2023-01-29T03:54:39;102202.25;;;4.75;100.00
38812;BME280;24553;51.640;-0.752;2023-01-29T04:02:30;102209.53;;;4.71;100.00
38812;BME280;24553;51.640;-0.752;2023-01-29T04:04:58;102201.97;;;4.67;100.00
38812;BME280;24553;51.640;-0.752;2023-01-29T04:07:27;102208.56;;;4.48;100.00
38812;BME280;24553;51.640;-0.752;2023-01-29T04:10:02;102204.81;;;4.40;100.00
38812;BME280;24553;51.640;-0.752;2023-01-29T04:12:42;102202.81;;;4.30;100.00
38812;BME280;24553;51.640;-0.752;2023-01-29T04:15:12;102197.25;;;4.22;100.00
38812;BME280;24553;51.640;-0.752;2023-01-29T04:17:45;102197.06;;;4.12;100.00
38812;BME280;24553;51.640;-0.752;2023-01-29T04:20:13;102190.16;;;4.11;100.00
38812;BME280;24553;51.640;-0.752;2023-01-29T04:22:39;102184.59;;;4.16;100.00
38812;BME280;24553;51.640;-0.752;2023-01-29T04:25:08;102174.31;;;4.00;100.00
38812;BME280;24553;51.640;-0.752;2023-01-29T04:33:11;102180.09;;;3.92;100.00
38812;BME280;24553;51.640;-0.752;2023-01-29T04:41:08;102177.56;;;4.04;100.00
38812;BME280;24553;51.640;-0.752;2023-01-29T04:43:43;102178.31;;;3.93;100.00
38812;BME280;24553;51.640;-0.752;2023-01-29T04:46:17;102180.28;;;3.77;100.00
38812;BME280;24553;51.640;-0.752;2023-01-29T04:51:13;102181.84;;;3.66;100.00
38812;BME280;24553;51.640;-0.752;2023-01-29T04:59:17;102176.63;;;3.79;100.00
38812;BME280;24553;51.640;-0.752;2023-01-29T05:01:46;102168.03;;;3.77;100.00
38812;BME280;24553;51.640;-0.752;2023-01-29T05:04:15;102168.56;;;3.82;100.00
38812;BME280;24553;51.640;-0.752;2023-01-29T05:06:42;102158.25;;;3.92;100.00
38812;BME280;24553;51.640;-0.752;2023-01-29T05:09:11;102153.19;;;4.02;100.00
38812;BME280;24553;51.640;-0.752;2023-01-29T05:11:37;102151.69;;;4.10;100.00
38812;BME280;24553;51.640;-0.752;2023-01-29T05:14:05;102154.66;;;4.06;100.00
38812;BME280;24553;51.640;-0.752;2023-01-29T05:16:52;102137.56;;;4.00;100.00
38812;BME280;24553;51.640;-0.752;2023-01-29T05:19:20;102136.31;;;3.93;100.00
38812;BME280;24553;51.640;-0.752;2023-01-29T05:21:47;102139.22;;;4.01;100.00
38812;BME280;24553;51.640;-0.752;2023-01-29T05:24:24;102138.19;;;4.04;100.00
38812;BME280;24553;51.640;-0.752;2023-01-29T05:26:52;102138.28;;;4.02;100.00
38812;BME280;24553;51.640;-0.752;2023-01-29T05:29:38;102131.59;;;3.98;100.00
38812;BME280;24553;51.640;-0.752;2023-01-29T05:32:07;102121.31;;;3.95;100.00
38812;BME280;24553;51.640;-0.752;2023-01-29T05:34:32;102122.44;;;3.91;100.00
38812;BME280;24553;51.640;-0.752;2023-01-29T05:36:58;102123.50;;;3.88;100.00
38812;BME280;24553;51.640;-0.752;2023-01-29T05:39:23;102132.50;;;4.10;100.00
38812;BME280;24553;51.640;-0.752;2023-01-29T05:41:49;102127.44;;;4.20;100.00
38812;BME280;24553;51.640;-0.752;2023-01-29T05:44:14;102126.66;;;4.30;100.00
38812;BME280;24553;51.640;-0.752;2023-01-29T05:46:39;102120.25;;;4.34;100.00
38812;BME280;24553;51.640;-0.752;2023-01-29T05:49:05;102113.72;;;4.40;100.00
38812;BME280;24553;51.640;-0.752;2023-01-29T05:51:30;102117.06;;;4.42;100.00
38812;BME280;24553;51.640;-0.752;2023-01-29T05:53:56;102117.81;;;4.44;100.00
38812;BME280;24553;51.640;-0.752;2023-01-29T05:56:21;102112.84;;;4.52;100.00
38812;BME280;24553;51.640;-0.752;2023-01-29T05:58:46;102110.72;;;4.57;100.00
38812;BME280;24553;51.640;-0.752;2023-01-29T06:01:14;102110.06;;;4.54;100.00
38812;BME280;24553;51.640;-0.752;2023-01-29T06:03:40;102106.94;;;4.49;100.00
38812;BME280;24553;51.640;-0.752;2023-01-29T06:06:06;102110.63;;;4.46;100.00
38812;BME280;24553;51.640;-0.752;2023-01-29T06:08:31;102095.59;;;4.48;100.00
38812;BME280;24553;51.640;-0.752;2023-01-29T06:10:56;102094.88;;;4.46;100.00
38812;BME280;24553;51.640;-0.752;2023-01-29T06:13:22;102083.44;;;4.47;100.00
38812;BME280;24553;51.640;-0.752;2023-01-29T06:15:47;102083.75;;;4.43;100.00
38812;BME280;24553;51.640;-0.752;2023-01-29T06:18:12;102089.34;;;4.38;100.00
38812;BME280;24553;51.640;-0.752;2023-01-29T06:20:38;102088.41;;;4.39;100.00
38812;BME280;24553;51.640;-0.752;2023-01-29T06:23:03;102090.16;;;4.38;100.00
38812;BME280;24553;51.640;-0.752;2023-01-29T06:25:29;102084.16;;;4.49;100.00
38812;BME280;24553;51.640;-0.752;2023-01-29T06:27:54;102082.81;;;4.44;100.00
38812;BME280;24553;51.640;-0.752;2023-01-29T06:30:19;102079.84;;;4.48;100.00
38812;BME280;24553;51.640;-0.752;2023-01-29T06:32:45;102083.09;;;4.52;100.00
38812;BME280;24553;51.640;-0.752;2023-01-29T06:35:10;102083.81;;;4.54;100.00
38812;BME280;24553;51.640;-0.752;2023-01-29T06:37:35;102085.72;;;4.52;100.00
38812;BME280;24553;51.640;-0.752;2023-01-29T06:40:01;102076.88;;;4.53;100.00
38812;BME280;24553;51.640;-0.752;2023-01-29T06:42:27;102077.94;;;4.50;100.00
38812;BME280;24553;51.640;-0.752;2023-01-29T06:44:56;102073.25;;;4.43;100.00
38812;BME280;24553;51.640;-0.752;2023-01-29T06:47:22;102068.47;;;4.36;100.00
38812;BME280;24553;51.640;-0.752;2023-01-29T06:49:48;102064.38;;;4.32;100.00
38812;BME280;24553;51.640;-0.752;2023-01-29T06:52:13;102076.38;;;4.24;100.00
38812;BME280;24553;51.640;-0.752;2023-01-29T06:54:39;102073.44;;;4.15;100.00
38812;BME280;24553;51.640;-0.752;2023-01-29T06:57:04;102069.16;;;4.14;100.00
38812;BME280;24553;51.640;-0.752;2023-01-29T06:59:29;102062.84;;;4.17;100.00
38812;BME280;24553;51.640;-0.752;2023-01-29T07:01:54;102065.38;;;4.19;100.00
38812;BME280;24553;51.640;-0.752;2023-01-29T07:04:20;102062.03;;;4.17;100.00
38812;BME280;24553;51.640;-0.752;2023-01-29T07:06:45;102071.34;;;4.21;100.00
38812;BME280;24553;51.640;-0.752;2023-01-29T07:09:11;102067.56;;;4.25;100.00
38812;BME280;24553;51.640;-0.752;2023-01-29T07:11:38;102073.41;;;4.28;100.00
38812;BME280;24553;51.640;-0.752;2023-01-29T07:14:04;102086.22;;;4.33;100.00
38812;BME280;24553;51.640;-0.752;2023-01-29T07:16:29;102072.97;;;4.34;100.00
38812;BME280;24553;51.640;-0.752;2023-01-29T07:18:55;102075.59;;;4.34;100.00
38812;BME280;24553;51.640;-0.752;2023-01-29T07:21:20;102068.56;;;4.35;100.00
38812;BME280;24553;51.640;-0.752;2023-01-29T07:23:46;102066.91;;;4.34;100.00
38812;BME280;24553;51.640;-0.752;2023-01-29T07:26:11;102059.13;;;4.32;100.00
38812;BME280;24553;51.640;-0.752;2023-01-29T07:28:38;102062.34;;;4.36;100.00
38812;BME280;24553;51.640;-0.752;2023-01-29T07:31:03;102060.34;;;4.40;100.00
38812;BME280;24553;51.640;-0.752;2023-01-29T07:33:29;102069.66;;;4.44;100.00
38812;BME280;24553;51.640;-0.752;2023-01-29T07:35:54;102062.78;;;4.54;100.00
38812;BME280;24553;51.640;-0.752;2023-01-29T07:38:20;102062.34;;;4.60;100.00
38812;BME280;24553;51.640;-0.752;2023-01-29T07:40:45;102063.91;;;4.63;100.00
38812;BME280;24553;51.640;-0.752;2023-01-29T07:43:11;102062.72;;;4.67;100.00
38812;BME280;24553;51.640;-0.752;2023-01-29T07:45:37;102068.22;;;4.64;100.00
38812;BME280;24553;51.640;-0.752;2023-01-29T07:48:04;102072.31;;;4.68;100.00
38812;BME280;24553;51.640;-0.752;2023-01-29T07:50:31;102067.97;;;4.67;100.00
38812;BME280;24553;51.640;-0.752;2023-01-29T07:52:57;102064.56;;;4.77;100.00
38812;BME280;24553;51.640;-0.752;2023-01-29T07:55:23;102058.97;;;4.82;100.00
38812;BME280;24553;51.640;-0.752;2023-01-29T07:57:55;102060.50;;;4.85;100.00
38812;BME280;24553;51.640;-0.752;2023-01-29T08:00:21;102058.03;;;4.83;100.00
38812;BME280;24553;51.640;-0.752;2023-01-29T08:02:47;102064.94;;;4.84;100.00
38812;BME280;24553;51.640;-0.752;2023-01-29T08:05:12;102064.69;;;4.76;100.00
38812;BME280;24553;51.640;-0.752;2023-01-29T08:07:37;102066.84;;;4.82;100.00
38812;BME280;24553;51.640;-0.752;2023-01-29T08:10:03;102061.81;;;4.79;100.00
38812;BME280;24553;51.640;-0.752;2023-01-29T08:12:29;102063.34;;;4.70;100.00
38812;BME280;24553;51.640;-0.752;2023-01-29T08:14:54;102059.44;;;4.76;100.00
38812;BME280;24553;51.640;-0.752;2023-01-29T08:17:19;102056.56;;;4.79;100.00
38812;BME280;24553;51.640;-0.752;2023-01-29T08:19:45;102058.03;;;4.83;100.00
38812;BME280;24553;51.640;-0.752;2023-01-29T08:22:10;102058.84;;;4.84;100.00
38812;BME280;24553;51.640;-0.752;2023-01-29T08:24:35;102063.88;;;4.87;100.00
38812;BME280;24553;51.640;-0.752;2023-01-29T08:27:01;102055.03;;;4.88;100.00
38812;BME280;24553;51.640;-0.752;2023-01-29T08:29:26;102054.44;;;4.84;100.00
38812;BME280;24553;51.640;-0.752;2023-01-29T08:31:51;102056.41;;;4.69;100.00
38812;BME280;24553;51.640;-0.752;2023-01-29T08:34:17;102050.31;;;4.69;100.00
38812;BME280;24553;51.640;-0.752;2023-01-29T08:36:42;102053.41;;;4.63;100.00
38812;BME280;24553;51.640;-0.752;2023-01-29T08:39:07;102057.94;;;4.61;100.00
38812;BME280;24553;51.640;-0.752;2023-01-29T08:41:33;102052.56;;;4.62;100.00
38812;BME280;24553;51.640;-0.752;2023-01-29T08:43:58;102051.50;;;4.65;100.00
38812;BME280;24553;51.640;-0.752;2023-01-29T08:46:25;102050.31;;;4.69;100.00
38812;BME280;24553;51.640;-0.752;2023-01-29T08:48:50;102055.72;;;4.78;100.00
38812;BME280;24553;51.640;-0.752;2023-01-29T08:51:16;102053.19;;;4.77;100.00
38812;BME280;24553;51.640;-0.752;2023-01-29T08:53:41;102055.84;;;4.77;100.00
38812;BME280;24553;51.640;-0.752;2023-01-29T08:56:07;102053.19;;;4.77;100.00
38812;BME280;24553;51.640;-0.752;2023-01-29T08:58:32;102053.09;;;4.78;100.00
38812;BME280;24553;51.640;-0.752;2023-01-29T09:01:08;102057.44;;;4.91;100.00
38812;BME280;24553;51.640;-0.752;2023-01-29T09:03:33;102055.66;;;5.02;100.00
38812;BME280;24553;51.640;-0.752;2023-01-29T09:05:59;102052.94;;;5.04;100.00
38812;BME280;24553;51.640;-0.752;2023-01-29T09:08:24;102054.09;;;5.00;100.00
38812;BME280;24553;51.640;-0.752;2023-01-29T09:10:50;102054.34;;;4.97;100.00
38812;BME280;24553;51.640;-0.752;2023-01-29T09:13:15;102052.19;;;5.02;100.00
38812;BME280;24553;51.640;-0.752;2023-01-29T09:15:40;102055.06;;;4.99;100.00
38812;BME280;24553;51.640;-0.752;2023-01-29T09:18:06;102052.44;;;4.99;100.00
38812;BME280;24553;51.640;-0.752;2023-01-29T09:20:31;102062.63;;;5.03;100.00
38812;BME280;24553;51.640;-0.752;2023-01-29T09:22:56;102053.88;;;5.03;100.00
38812;BME280;24553;51.640;-0.752;2023-01-29T09:25:23;102065.00;;;5.07;100.00
38812;BME280;24553;51.640;-0.752;2023-01-29T09:27:48;102057.22;;;5.05;100.00
38812;BME280;24553;51.640;-0.752;2023-01-29T09:30:14;102060.25;;;5.12;100.00
38812;BME280;24553;51.640;-0.752;2023-01-29T09:32:39;102060.69;;;5.06;100.00
38812;BME280;24553;51.640;-0.752;2023-01-29T09:35:05;102054.50;;;5.07;100.00
38812;BME280;24553;51.640;-0.752;2023-01-29T09:37:30;102060.00;;;5.26;100.00
38812;BME280;24553;51.640;-0.752;2023-01-29T09:39:56;102058.81;;;5.30;100.00
38812;BME280;24553;51.640;-0.752;2023-01-29T09:42:34;102057.84;;;5.31;100.00
38812;BME280;24553;51.640;-0.752;2023-01-29T09:45:05;102062.78;;;5.24;100.00
38812;BME280;24553;51.640;-0.752;2023-01-29T09:47:35;102056.88;;;5.21;100.00
38812;BME280;24553;51.640;-0.752;2023-01-29T09:58:15;102041.50;;;5.50;100.00
38812;BME280;24553;51.640;-0.752;2023-01-29T10:06:22;102040.53;;;5.62;100.00
38812;BME280;24553;51.640;-0.752;2023-01-29T10:12:04;102044.72;;;5.65;100.00
38812;BME280;24553;51.640;-0.752;2023-01-29T10:23:09;102012.63;;;5.94;100.00
38812;BME280;24553;51.640;-0.752;2023-01-29T10:25:39;102009.63;;;5.98;100.00
38812;BME280;24553;51.640;-0.752;2023-01-29T10:28:15;102017.91;;;6.05;100.00
38812;BME280;24553;51.640;-0.752;2023-01-29T10:31:07;102012.16;;;6.00;100.00
38812;BME280;24553;51.640;-0.752;2023-01-29T10:33:39;102009.53;;;6.00;100.00
38812;BME280;24553;51.640;-0.752;2023-01-29T10:36:08;102001.13;;;6.06;100.00
38812;BME280;24553;51.640;-0.752;2023-01-29T10:38:45;102000.03;;;6.08;100.00
38812;BME280;24553;51.640;-0.752;2023-01-29T10:47:08;101989.34;;;6.21;100.00
38812;BME280;24553;51.640;-0.752;2023-01-29T10:52:08;101984.06;;;6.21;100.00
38812;BME280;24553;51.640;-0.752;2023-01-29T10:57:51;101976.97;;;6.33;100.00
38812;BME280;24553;51.640;-0.752;2023-01-29T11:00:23;101977.28;;;6.40;100.00
38812;BME280;24553;51.640;-0.752;2023-01-29T11:02:50;101966.47;;;6.43;100.00
38812;BME280;24553;51.640;-0.752;2023-01-29T11:05:33;101974.63;;;6.51;100.00
38812;BME280;24553;51.640;-0.752;2023-01-29T11:08:10;101962.97;;;6.53;100.00
38812;BME280;24553;51.640;-0.752;2023-01-29T11:11:04;101965.81;;;6.62;100.00
38812;BME280;24553;51.640;-0.752;2023-01-29T11:13:37;101958.47;;;6.65;100.00
38812;BME280;24553;51.640;-0.752;2023-01-29T11:16:04;101965.88;;;6.71;100.00
38812;BME280;24553;51.640;-0.752;2023-01-29T11:18:54;101961.53;;;6.70;100.00
38812;BME280;24553;51.640;-0.752;2023-01-29T11:21:21;101950.88;;;6.72;100.00
38812;BME280;24553;51.640;-0.752;2023-01-29T11:23:47;101949.84;;;6.84;100.00
38812;BME280;24553;51.640;-0.752;2023-01-29T11:26:17;101937.56;;;6.94;100.00
38812;BME280;24553;51.640;-0.752;2023-01-29T11:28:45;101932.63;;;7.11;100.00
38812;BME280;24553;51.640;-0.752;2023-01-29T11:31:38;101935.81;;;7.14;100.00
38812;BME280;24553;51.640;-0.752;2023-01-29T11:34:18;101929.31;;;7.18;100.00
38812;BME280;24553;51.640;-0.752;2023-01-29T11:36:44;101924.19;;;7.27;100.00
38812;BME280;24553;51.640;-0.752;2023-01-29T11:39:16;101915.59;;;7.25;100.00
38812;BME280;24553;51.640;-0.752;2023-01-29T11:41:43;101895.19;;;7.27;100.00
38812;BME280;24553;51.640;-0.752;2023-01-29T11:46:55;101896.16;;;7.26;100.00
38812;BME280;24553;51.640;-0.752;2023-01-29T11:49:32;101893.84;;;7.42;100.00
38812;BME280;24553;51.640;-0.752;2023-01-29T11:52:05;101901.47;;;7.45;100.00
38812;BME280;24553;51.640;-0.752;2023-01-29T11:54:37;101892.31;;;7.49;100.00
38812;BME280;24553;51.640;-0.752;2023-01-29T11:57:04;101896.25;;;7.64;100.00
38812;BME280;24553;51.640;-0.752;2023-01-29T11:59:39;101877.88;;;7.63;100.00
38812;BME280;24553;51.640;-0.752;2023-01-29T12:04:42;101878.13;;;7.31;100.00
38812;BME280;24553;51.640;-0.752;2023-01-29T12:07:15;101874.66;;;7.40;100.00
38812;BME280;24553;51.640;-0.752;2023-01-29T12:09:48;101872.41;;;7.35;100.00
38812;BME280;24553;51.640;-0.752;2023-01-29T12:12:25;101868.16;;;7.44;100.00
38812;BME280;24553;51.640;-0.752;2023-01-29T12:15:13;101863.56;;;7.46;100.00
38812;BME280;24553;51.640;-0.752;2023-01-29T12:17:44;101855.22;;;7.41;100.00
38812;BME280;24553;51.640;-0.752;2023-01-29T12:20:16;101855.06;;;7.33;100.00
38812;BME280;24553;51.640;-0.752;2023-01-29T12:26:05;101830.09;;;7.76;100.00
38812;BME280;24553;51.640;-0.752;2023-01-29T12:28:43;101823.81;;;7.86;100.00
38812;BME280;24553;51.640;-0.752;2023-01-29T12:31:21;101814.91;;;7.97;100.00
38812;BME280;24553;51.640;-0.752;2023-01-29T12:34:00;101808.09;;;7.95;100.00
38812;BME280;24553;51.640;-0.752;2023-01-29T12:36:47;101808.69;;;7.98;100.00
38812;BME280;24553;51.640;-0.752;2023-01-29T12:39:18;101795.59;;;7.87;100.00
38812;BME280;24553;51.640;-0.752;2023-01-29T12:41:49;101785.31;;;7.94;100.00
38812;BME280;24553;51.640;-0.752;2023-01-29T12:44:39;101785.44;;;7.92;100.00
38812;BME280;24553;51.640;-0.752;2023-01-29T12:47:33;101781.72;;;7.85;100.00
38812;BME280;24553;51.640;-0.752;2023-01-29T12:50:04;101783.25;;;7.88;100.00
38812;BME280;24553;51.640;-0.752;2023-01-29T12:55:10;101766.97;;;7.92;100.00
38812;BME280;24553;51.640;-0.752;2023-01-29T12:57:52;101756.41;;;7.92;100.00
38812;BME280;24553;51.640;-0.752;2023-01-29T13:00:27;101749.75;;;7.88;100.00
38812;BME280;24553;51.640;-0.752;2023-01-29T13:05:40;101740.72;;;7.91;100.00
38812;BME280;24553;51.640;-0.752;2023-01-29T13:08:16;101736.84;;;7.85;100.00
38812;BME280;24553;51.640;-0.752;2023-01-29T13:10:47;101727.81;;;7.78;100.00
38812;BME280;24553;51.640;-0.752;2023-01-29T13:15:51;101728.50;;;7.80;100.00
38812;BME280;24553;51.640;-0.752;2023-01-29T13:18:48;101720.72;;;7.88;100.00
38812;BME280;24553;51.640;-0.752;2023-01-29T13:21:20;101716.78;;;7.92;100.00
38812;BME280;24553;51.640;-0.752;2023-01-29T13:23:49;101711.06;;;7.97;100.00
38812;BME280;24553;51.640;-0.752;2023-01-29T13:26:19;101699.41;;;7.99;100.00
38812;BME280;24553;51.640;-0.752;2023-01-29T13:28:46;101698.44;;;8.00;100.00
38812;BME280;24553;51.640;-0.752;2023-01-29T13:31:36;101694.38;;;8.06;100.00
38812;BME280;24553;51.640;-0.752;2023-01-29T13:34:14;101687.56;;;8.03;100.00
38812;BME280;24553;51.640;-0.752;2023-01-29T13:36:46;101687.00;;;8.00;100.00
38812;BME280;24553;51.640;-0.752;2023-01-29T13:39:33;101680.47;;;8.04;100.00
38812;BME280;24553;51.640;-0.752;2023-01-29T13:42:02;101685.22;;;8.00;100.00
38812;BME280;24553;51.640;-0.752;2023-01-29T13:44:39;101678.59;;;8.24;100.00
38812;BME280;24553;51.640;-0.752;2023-01-29T13:47:08;101674.53;;;8.39;100.00
38812;BME280;24553;51.640;-0.752;2023-01-29T13:49:46;101665.25;;;8.53;100.00
38812;BME280;24553;51.640;-0.752;2023-01-29T13:54:57;101666.13;;;8.44;100.00
38812;BME280;24553;51.640;-0.752;2023-01-29T14:10:41;101632.25;;;8.75;100.00
38812;BME280;24553;51.640;-0.752;2023-01-29T14:13:33;101632.72;;;8.88;100.00
38812;BME280;24553;51.640;-0.752;2023-01-29T14:18:26;101620.47;;;8.87;100.00
38812;BME280;24553;51.640;-0.752;2023-01-29T14:23:40;101628.63;;;8.94;100.00
38812;BME280;24553;51.640;-0.752;2023-01-29T14:26:25;101624.03;;;8.96;100.00
38812;BME280;24553;51.640;-0.752;2023-01-29T14:34:06;101614.47;;;9.03;100.00
38812;BME280;24553;51.640;-0.752;2023-01-29T14:36:39;101617.66;;;9.07;100.00
38812;BME280;24553;51.640;-0.752;2023-01-29T14:39:05;101620.75;;;9.02;100.00
38812;BME280;24553;51.640;-0.752;2023-01-29T14:41:32;101601.94;;;9.05;100.00
38812;BME280;24553;51.640;-0.752;2023-01-29T14:47:02;101595.56;;;9.16;100.00
38812;BME280;24553;51.640;-0.752;2023-01-29T14:49:51;101597.28;;;9.25;100.00
38812;BME280;24553;51.640;-0.752;2023-01-29T14:52:20;101601.22;;;9.21;100.00
38812;BME280;24553;51.640;-0.752;2023-01-29T14:54:47;101590.03;;;9.27;100.00
38812;BME280;24553;51.640;-0.752;2023-01-29T14:57:15;101588.84;;;9.22;100.00
38812;BME280;24553;51.640;-0.752;2023-01-29T14:59:53;101587.22;;;9.29;100.00
38812;BME280;24553;51.640;-0.752;2023-01-29T15:02:31;101588.34;;;9.26;100.00